Apalachicola, Florida
Current Conditions -  °F | °C
As of 9:53 AM on Saturday 22 Nov 2014 (Local Time) from KAAF Reporting Station
Overcast Overcast  
Wind Chill: 63°   Ceiling: 7500
Heat Index: 63°   Visibility: 10mi
Dew Point: 51°   Wind: 9mph
Humidity: 65%   Direction: 80°E
Pressure: 30.28"   Gusts: NA
Location:  29.73°N, 84.99°W
Report Text: KAAF 221453Z AUTO 08008KT 10SM OVC075 17/11 A3028 RMK AO2 SLP254 T01720106 51002 TSNO
Loading
Personal Weather Stations






























Interactive Weather Map New forecast layout! Learn more

10-Day Weather Forecast

Advertisements
Track Severe Weather on mobile